Time;durP1;ratioP1;P1;durP2;ratioP2;P2;SDS_P1;SDS_P2;PMS_P1;PMS_P2;Temp;Humidity;BMP_temperature;BMP_pressure;BME280_temperature;BME280_humidity;BME280_pressure;Samples;Min_cycle;Max_cycle;Signal;HPM_P1;HPM_P2
2023/12/28 00:01:43;;;;;;;0.50;0.50;;;;;;;-2.07;83.85;99572.78;5065873;28;20025;-66
2023/12/28 00:04:08;;;;;;;0.60;0.60;;;;;;;-2.19;84.12;99578.34;5047757;28;20431;-65
2023/12/28 00:06:34;;;;;;;0.50;0.50;;;;;;;-2.10;84.12;99564.19;5065941;28;20112;-68
2023/12/28 00:09:00;;;;;;;0.50;0.50;;;;;;;-2.22;84.96;99549.44;5065886;28;20060;-66
2023/12/28 00:11:26;;;;;;;0.50;0.50;;;;;;;-2.07;85.03;99547.34;5065264;28;20021;-67
2023/12/28 00:13:51;;;;;;;0.60;0.60;;;;;;;-2.13;85.50;99540.41;5065844;28;20025;-65
2023/12/28 00:16:16;;;;;;;0.50;0.50;;;;;;;-2.09;85.36;99498.09;5065839;28;20073;-65
2023/12/28 00:18:42;;;;;;;0.60;0.60;;;;;;;-1.95;86.11;99510.34;5047634;28;20025;-64
2023/12/28 00:21:07;;;;;;;0.50;0.50;;;;;;;-1.90;85.89;99504.56;5065695;28;20017;-66
2023/12/28 00:23:33;;;;;;;0.50;0.50;;;;;;;-1.97;86.83;99495.06;5065498;28;20031;-66
2023/12/28 00:25:58;;;;;;;1.13;1.13;;;;;;;-1.96;87.12;99470.44;5065309;28;20032;-65
2023/12/28 00:28:23;;;;;;;0.88;0.73;;;;;;;-1.70;86.92;99467.75;5065542;28;20021;-65
2023/12/28 00:30:49;;;;;;;0.50;0.50;;;;;;;-1.98;87.81;99444.97;5065549;28;20370;-64
2023/12/28 00:33:14;;;;;;;0.50;0.50;;;;;;;-1.87;87.81;99452.91;5065635;28;20025;-64
2023/12/28 00:35:39;;;;;;;0.90;0.68;;;;;;;-1.56;87.01;99427.38;5065461;28;20013;-65
2023/12/28 00:38:05;;;;;;;0.68;0.68;;;;;;;-1.92;88.38;99419.72;5065645;28;20056;-65
2023/12/28 00:40:30;;;;;;;0.50;0.50;;;;;;;-1.69;88.01;99400.78;5065350;28;20116;-65
2023/12/28 00:42:55;;;;;;;0.50;0.50;;;;;;;-1.59;87.86;99405.25;5065606;28;20025;-66
2023/12/28 00:45:21;;;;;;;0.75;0.70;;;;;;;-1.45;87.77;99399.66;5065435;28;20132;-66
2023/12/28 00:47:46;;;;;;;0.50;0.50;;;;;;;-1.52;87.86;99399.50;5065316;28;20453;-66
2023/12/28 00:50:12;;;;;;;0.77;0.77;;;;;;;-1.63;89.50;99371.22;5047048;28;20047;-65
2023/12/28 00:52:37;;;;;;;0.50;0.50;;;;;;;-1.52;89.37;99363.84;5065353;28;20025;-65
2023/12/28 00:55:04;;;;;;;1.75;0.70;;;;;;;-1.53;88.75;99372.31;5065334;28;20103;-66
2023/12/28 00:57:29;;;;;;;0.70;0.70;;;;;;;-1.54;89.47;99313.72;5047573;28;20107;-66
2023/12/28 00:59:54;;;;;;;0.60;0.60;;;;;;;-1.44;89.52;99314.81;5065204;28;20082;-65
2023/12/28 01:02:20;;;;;;;1.77;1.70;;;;;;;-1.32;88.56;99299.81;5047312;28;20025;-65
2023/12/28 01:04:45;;;;;;;0.55;0.55;;;;;;;-1.53;89.97;99305.25;5064838;28;20029;-65
2023/12/28 01:07:11;;;;;;;0.50;0.50;;;;;;;-1.12;88.97;99297.69;5065115;28;20060;-65
2023/12/28 01:09:37;;;;;;;0.50;0.50;;;;;;;-1.38;88.91;99294.59;5065160;28;20089;-65
2023/12/28 01:12:02;;;;;;;0.60;0.60;;;;;;;-1.46;90.33;99248.59;5065236;28;20021;-65
2023/12/28 01:14:28;;;;;;;0.60;0.60;;;;;;;-1.67;91.09;99252.38;5064988;28;20021;-65
2023/12/28 01:16:53;;;;;;;2.45;2.35;;;;;;;-1.48;91.84;99257.88;5064871;28;20450;-65
2023/12/28 01:19:19;;;;;;;0.60;0.60;;;;;;;-1.40;90.93;99264.00;5064887;28;20032;-65
2023/12/28 01:21:44;;;;;;;0.50;0.50;;;;;;;-1.42;90.75;99257.16;5064993;28;20037;-66
2023/12/28 01:24:10;;;;;;;0.60;0.60;;;;;;;-1.32;90.99;99253.97;5064853;28;20021;-66
2023/12/28 01:26:36;;;;;;;0.60;0.60;;;;;;;-1.29;90.93;99223.47;5064857;28;20078;-65
2023/12/28 01:29:04;;;;;;;0.60;0.60;;;;;;;-1.27;91.17;99183.63;5064511;28;20274;-64
2023/12/28 01:31:29;;;;;;;0.50;0.50;;;;;;;-1.26;91.55;99180.25;5064937;28;20082;-65
2023/12/28 01:33:56;;;;;;;0.50;0.50;;;;;;;-1.20;91.73;99171.88;5046970;28;20049;-65
2023/12/28 01:36:21;;;;;;;0.60;0.60;;;;;;;-1.10;92.18;99167.78;5047027;28;20083;-65
2023/12/28 01:38:47;;;;;;;1.45;0.75;;;;;;;-1.48;93.47;99165.34;5068479;28;20018;-64
2023/12/28 01:41:13;;;;;;;0.60;0.60;;;;;;;-1.23;93.04;99153.13;5068559;28;20116;-64
2023/12/28 01:43:39;;;;;;;0.60;0.60;;;;;;;-1.26;93.18;99138.63;5050791;28;20040;-63
2023/12/28 01:46:06;;;;;;;0.50;0.50;;;;;;;-1.42;94.06;99135.78;5068810;28;20088;-64
2023/12/28 01:48:32;;;;;;;0.60;0.60;;;;;;;-1.03;92.97;99118.69;5068697;28;20021;-64
2023/12/28 01:50:59;;;;;;;0.50;0.50;;;;;;;-1.10;92.83;99104.13;5068569;28;20043;-63
2023/12/28 01:53:24;;;;;;;0.43;0.43;;;;;;;-1.01;92.01;99086.44;5068474;28;20159;-63
2023/12/28 01:55:50;;;;;;;0.50;0.50;;;;;;;-1.05;92.47;99099.97;5068667;28;20487;-62
2023/12/28 01:58:15;;;;;;;1.83;0.88;;;;;;;-0.91;92.35;99084.06;5068553;28;20029;-63
2023/12/28 02:00:42;;;;;;;0.57;0.57;;;;;;;-0.88;92.29;99076.47;5068042;28;20021;-63
2023/12/28 02:03:08;;;;;;;0.50;0.50;;;;;;;-0.93;92.58;99052.59;5067074;28;20025;-62
2023/12/28 02:05:33;;;;;;;0.50;0.50;;;;;;;-1.00;94.49;99055.06;5067763;28;20017;-63
2023/12/28 02:07:59;;;;;;;0.60;0.60;;;;;;;-0.76;93.12;99041.00;5068444;28;20017;-63
2023/12/28 02:10:24;;;;;;;0.50;0.50;;;;;;;-0.78;93.35;99018.84;5068348;28;20017;-62
2023/12/28 02:12:52;;;;;;;0.50;0.50;;;;;;;-0.91;93.47;99003.38;5068265;28;20021;-63
2023/12/28 02:15:18;;;;;;;0.50;0.50;;;;;;;-0.70;93.06;99012.19;5068087;28;20493;-64
2023/12/28 02:17:55;;;;;;;0.50;0.50;;;;;;;-0.69;92.56;98972.28;5068148;28;20021;-63
2023/12/28 02:20:21;;;;;;;0.50;0.50;;;;;;;-0.62;93.22;98953.66;5068005;28;20055;-63
2023/12/28 02:22:46;;;;;;;0.50;0.50;;;;;;;-0.88;94.28;98951.63;5068169;28;20025;-63
2023/12/28 02:25:12;;;;;;;0.50;0.50;;;;;;;-0.62;94.33;98940.91;5068067;28;20025;-64
2023/12/28 02:27:48;;;;;;;0.50;0.50;;;;;;;-0.41;93.01;98944.56;5049851;28;20124;-63
2023/12/28 02:30:21;;;;;;;0.52;0.52;;;;;;;-0.40;92.68;98931.00;5049901;28;20080;-63
2023/12/28 02:33:31;;;;;;;0.50;0.50;;;;;;;-0.27;92.88;98914.13;5067849;28;20457;-62
2023/12/28 02:36:10;;;;;;;0.50;0.50;;;;;;;-0.33;93.33;98899.63;4986301;28;20039;-63
2023/12/28 02:38:37;;;;;;;0.50;0.50;;;;;;;-0.22;93.96;98914.22;4986572;28;20027;-63
2023/12/28 02:41:03;;;;;;;0.50;0.50;;;;;;;-0.21;93.15;98878.53;4986607;28;20042;-63
2023/12/28 02:43:29;;;;;;;0.50;0.50;;;;;;;-0.31;93.94;98882.66;4986408;28;20031;-62
2023/12/28 02:45:54;;;;;;;0.50;0.50;;;;;;;-0.20;93.28;98882.78;4970007;28;20089;-62
2023/12/28 02:48:20;;;;;;;0.50;0.50;;;;;;;-0.41;93.83;98863.84;4986030;28;20586;-64
2023/12/28 02:50:46;;;;;;;0.52;0.52;;;;;;;-0.05;93.12;98865.91;4986281;28;20026;-64
2023/12/28 02:53:12;;;;;;;0.50;0.50;;;;;;;-0.27;94.21;98861.44;4986411;28;20038;-63
2023/12/28 02:55:37;;;;;;;0.50;0.50;;;;;;;0.03;92.88;98826.03;4986096;28;20082;-64
2023/12/28 02:58:03;;;;;;;0.43;0.43;;;;;;;-0.13;93.34;98840.34;4986251;28;20030;-63
2023/12/28 03:00:28;;;;;;;0.50;0.50;;;;;;;-0.18;93.50;98817.34;4986087;28;20042;-63
2023/12/28 03:02:54;;;;;;;0.50;0.50;;;;;;;-0.16;93.39;98818.19;4986274;28;20031;-63
2023/12/28 03:05:19;;;;;;;0.50;0.50;;;;;;;0.10;93.39;98809.91;4985781;28;20532;-63
2023/12/28 03:07:45;;;;;;;1.17;0.57;;;;;;;0.04;94.24;98829.41;4985913;28;20022;-64
2023/12/28 03:10:11;;;;;;;0.50;0.50;;;;;;;0.17;93.72;98845.69;4969706;28;20029;-63
2023/12/28 03:12:36;;;;;;;0.45;0.45;;;;;;;0.07;93.98;98837.97;5036478;28;20102;-63
2023/12/28 03:15:02;;;;;;;0.50;0.50;;;;;;;-0.02;93.78;98825.97;5066971;28;20029;-62
2023/12/28 03:17:28;;;;;;;0.50;0.50;;;;;;;-0.15;94.75;98832.66;5067170;28;20090;-62
2023/12/28 03:19:54;;;;;;;0.45;0.45;;;;;;;0.03;94.71;98853.22;5048915;28;20021;-62
2023/12/28 03:22:19;;;;;;;0.40;0.40;;;;;;;0.21;93.75;98843.19;5066770;28;20068;-62
2023/12/28 03:24:46;;;;;;;2.38;2.25;;;;;;;0.08;94.32;98836.28;5066525;28;20025;-63
2023/12/28 03:27:11;;;;;;;0.47;0.47;;;;;;;0.02;95.60;98851.53;5048587;28;20048;-63
2023/12/28 03:29:37;;;;;;;0.50;0.50;;;;;;;-0.29;96.32;98832.50;5066446;28;20048;-63
2023/12/28 03:32:02;;;;;;;0.50;0.50;;;;;;;-0.32;96.81;98841.84;5066851;28;20417;-62
2023/12/28 03:34:29;;;;;;;0.50;0.50;;;;;;;-0.34;97.79;98823.97;5066294;28;20013;-62
2023/12/28 03:36:55;;;;;;;0.50;0.50;;;;;;;-0.45;98.48;98828.09;5066536;28;20013;-62
2023/12/28 03:39:20;;;;;;;0.50;0.50;;;;;;;-0.37;99.09;98818.84;5048517;28;20021;-62
2023/12/28 03:41:47;;;;;;;0.50;0.50;;;;;;;-0.22;99.52;98812.19;5066438;28;20067;-63
2023/12/28 03:44:13;;;;;;;1.40;1.30;;;;;;;-0.09;98.55;98811.44;5066545;28;20033;-62
2023/12/28 03:46:38;;;;;;;0.50;0.50;;;;;;;0.10;98.39;98788.63;5066392;28;20025;-62
2023/12/28 03:49:04;;;;;;;0.40;0.40;;;;;;;0.16;97.15;98787.84;5066464;28;20099;-62
2023/12/28 03:51:29;;;;;;;0.43;0.43;;;;;;;0.27;96.71;98800.69;5066207;28;20055;-63
2023/12/28 03:53:54;;;;;;;0.50;0.50;;;;;;;0.22;96.35;98770.03;5048185;28;20052;-63
2023/12/28 03:56:20;;;;;;;0.40;0.40;;;;;;;0.25;96.48;98787.91;5066462;28;20362;-63
2023/12/28 03:58:45;;;;;;;0.50;0.50;;;;;;;0.45;95.75;98771.84;5066006;28;20104;-64
2023/12/28 04:01:11;;;;;;;0.47;0.47;;;;;;;0.52;95.23;98760.84;5065617;28;20020;-64
2023/12/28 04:03:36;;;;;;;0.43;0.43;;;;;;;0.31;95.94;98756.44;5065960;28;20084;-64
2023/12/28 04:06:02;;;;;;;0.47;0.47;;;;;;;0.48;96.00;98737.00;5065988;28;20029;-65
2023/12/28 04:08:27;;;;;;;0.50;0.50;;;;;;;0.64;95.67;98746.44;5066071;28;20390;-65
2023/12/28 04:10:52;;;;;;;0.40;0.40;;;;;;;0.40;96.82;98765.88;5047979;28;20028;-65
2023/12/28 04:13:18;;;;;;;0.50;0.50;;;;;;;0.64;96.64;98760.06;5066076;28;20081;-65
2023/12/28 04:15:43;;;;;;;0.50;0.50;;;;;;;0.56;96.64;98751.53;5065854;28;20496;-64
2023/12/28 04:18:08;;;;;;;0.43;0.43;;;;;;;0.41;97.62;98757.38;5065841;28;20029;-64
2023/12/28 04:20:33;;;;;;;0.50;0.50;;;;;;;0.53;97.48;98754.88;5065809;28;20112;-65
2023/12/28 04:22:59;;;;;;;0.50;0.50;;;;;;;0.45;97.64;98754.84;5065665;28;20052;-64
2023/12/28 04:25:24;;;;;;;0.90;0.85;;;;;;;0.69;97.37;98742.19;5065630;28;20036;-65
2023/12/28 04:27:49;;;;;;;0.50;0.50;;;;;;;0.59;98.00;98764.31;5065713;28;20021;-65
2023/12/28 04:30:15;;;;;;;0.50;0.50;;;;;;;0.40;98.96;98735.25;5065416;28;20098;-64
2023/12/28 04:32:40;;;;;;;0.50;0.50;;;;;;;0.49;99.24;98740.41;5065587;28;20080;-64
2023/12/28 04:35:06;;;;;;;0.50;0.50;;;;;;;0.44;99.54;98719.09;5065216;28;20029;-64
2023/12/28 04:37:32;;;;;;;0.50;0.50;;;;;;;0.77;99.11;98730.31;5047677;28;20024;-64
2023/12/28 04:39:58;;;;;;;0.50;0.50;;;;;;;0.77;98.83;98724.38;5065442;28;20075;-64
2023/12/28 04:42:23;;;;;;;0.40;0.40;;;;;;;0.87;98.41;98726.09;5065465;28;20423;-64
2023/12/28 04:44:48;;;;;;;0.60;0.60;;;;;;;0.90;98.31;98720.13;5047091;28;20021;-63
2023/12/28 04:47:13;;;;;;;0.50;0.50;;;;;;;1.01;98.50;98715.94;5065284;28;20025;-63
2023/12/28 04:49:39;;;;;;;0.50;0.50;;;;;;;0.93;97.75;98710.78;5047229;28;20067;-64
2023/12/28 04:52:04;;;;;;;0.50;0.50;;;;;;;1.00;98.32;98711.69;5065401;28;20029;-64
2023/12/28 04:54:30;;;;;;;0.63;0.63;;;;;;;1.03;98.24;98713.38;5065155;28;20020;-64
2023/12/28 04:56:55;;;;;;;0.55;0.55;;;;;;;1.01;98.44;98704.88;5065084;28;20025;-64
2023/12/28 04:59:20;;;;;;;0.52;0.52;;;;;;;1.06;98.79;98715.94;5064992;28;20112;-64
2023/12/28 05:01:46;;;;;;;0.50;0.50;;;;;;;1.15;98.62;98694.69;5065229;28;20056;-63
2023/12/28 05:04:11;;;;;;;0.60;0.60;;;;;;;1.17;98.78;98703.19;5064903;28;20021;-64
2023/12/28 05:06:37;;;;;;;0.50;0.50;;;;;;;1.21;99.11;98687.88;5064926;28;20024;-64
2023/12/28 05:09:03;;;;;;;0.70;0.70;;;;;;;1.50;97.98;98693.03;5064635;28;20081;-64
2023/12/28 05:11:28;;;;;;;0.50;0.50;;;;;;;1.38;99.03;98699.81;5046878;28;20017;-64
2023/12/28 05:13:54;;;;;;;9.38;0.90;;;;;;;1.14;100.00;98693.81;5064871;28;20028;-64
2023/12/28 05:16:20;;;;;;;0.40;0.40;;;;;;;1.26;100.00;98693.00;5065169;28;20021;-65
2023/12/28 05:18:46;;;;;;;0.50;0.50;;;;;;;1.36;100.00;98669.13;5064948;28;20021;-64
2023/12/28 05:21:14;;;;;;;0.40;0.40;;;;;;;1.41;100.00;98674.25;5064772;28;20021;-64
2023/12/28 05:23:40;;;;;;;0.60;0.60;;;;;;;1.41;100.00;98671.69;5046993;28;20036;-64
2023/12/28 05:26:06;;;;;;;0.50;0.50;;;;;;;1.35;100.00;98676.81;5064957;28;20029;-64
2023/12/28 05:28:31;;;;;;;0.60;0.60;;;;;;;1.45;100.00;98654.66;5064905;28;20048;-65
2023/12/28 05:30:58;;;;;;;0.75;0.75;;;;;;;1.52;100.00;98674.25;5064714;28;20120;-64
2023/12/28 05:33:24;;;;;;;0.65;0.60;;;;;;;1.71;100.00;98646.97;5064789;28;20029;-63
2023/12/28 05:35:50;;;;;;;0.50;0.50;;;;;;;1.61;100.00;98658.06;5064258;28;20028;-64
2023/12/28 05:38:15;;;;;;;0.40;0.40;;;;;;;1.68;100.00;98643.53;5064711;28;20481;-64
2023/12/28 05:40:41;;;;;;;0.43;0.43;;;;;;;1.84;100.00;98649.50;5064718;28;20051;-64
2023/12/28 05:43:06;;;;;;;1.05;0.80;;;;;;;1.80;100.00;98647.81;5065128;28;20028;-64
2023/12/28 05:45:31;;;;;;;1.08;0.98;;;;;;;1.78;100.00;98635.03;5064660;28;20049;-65
2023/12/28 05:47:57;;;;;;;0.85;0.85;;;;;;;1.96;100.00;98634.16;5064563;28;20050;-65
2023/12/28 05:50:22;;;;;;;0.82;0.75;;;;;;;2.10;100.00;98646.06;5046647;28;20036;-65
2023/12/28 05:52:47;;;;;;;2.25;2.05;;;;;;;2.25;100.00;98639.19;5067990;28;20033;-64
2023/12/28 05:55:13;;;;;;;2.10;1.58;;;;;;;2.53;100.00;98639.09;5063375;28;20465;-64
2023/12/28 05:57:38;;;;;;;2.58;1.88;;;;;;;2.76;100.00;98640.69;5063384;28;20107;-63
2023/12/28 06:00:06;;;;;;;1.45;1.38;;;;;;;2.83;100.00;98620.16;5063867;28;20029;-63
2023/12/28 06:02:31;;;;;;;2.20;1.35;;;;;;;3.09;100.00;98631.09;5063361;28;20032;-64
2023/12/28 06:04:57;;;;;;;2.50;2.30;;;;;;;3.30;100.00;98629.25;5063968;28;20033;-64
2023/12/28 06:07:22;;;;;;;8.85;1.67;;;;;;;3.46;100.00;98628.28;5064611;28;20028;-65
2023/12/28 06:09:47;;;;;;;1.27;1.17;;;;;;;3.66;100.00;98618.72;5064402;28;20021;-64
2023/12/28 06:12:13;;;;;;;4.13;2.50;;;;;;;3.79;100.00;98599.75;5064611;28;20098;-64
2023/12/28 06:14:38;;;;;;;0.40;0.40;;;;;;;3.89;100.00;98602.22;5064444;28;20024;-65
2023/12/28 06:17:03;;;;;;;3.92;2.25;;;;;;;3.96;100.00;98601.31;5064574;28;20381;-66
2023/12/28 06:19:30;;;;;;;0.38;0.38;;;;;;;4.05;100.00;98579.81;5064415;28;20025;-65
2023/12/28 06:21:55;;;;;;;0.40;0.40;;;;;;;4.10;100.00;98578.03;5064443;28;20025;-65
2023/12/28 06:24:20;;;;;;;0.40;0.40;;;;;;;4.19;100.00;98579.63;5066952;28;20064;-65
2023/12/28 06:26:46;;;;;;;0.40;0.40;;;;;;;4.21;100.00;98577.91;5068133;28;20060;-64
2023/12/28 06:29:11;;;;;;;0.38;0.38;;;;;;;4.26;100.00;98575.28;5049988;28;20485;-65
2023/12/28 06:31:37;;;;;;;0.93;0.93;;;;;;;4.32;100.00;98580.34;5068168;28;20036;-65
2023/12/28 06:34:06;;;;;;;0.40;0.40;;;;;;;4.35;100.00;98582.88;5049934;28;20021;-65
2023/12/28 06:36:32;;;;;;;0.50;0.50;;;;;;;4.37;100.00;98565.72;5067958;28;20017;-65
2023/12/28 06:38:58;;;;;;;14.63;2.90;;;;;;;4.42;100.00;98569.09;5050110;28;20040;-65
2023/12/28 06:41:24;;;;;;;0.40;0.40;;;;;;;4.51;100.00;98557.84;5067943;28;20025;-65
2023/12/28 06:43:49;;;;;;;0.82;0.82;;;;;;;4.51;100.00;98564.69;5067975;28;20021;-65
2023/12/28 06:46:15;;;;;;;3.22;2.85;;;;;;;4.54;100.00;98564.63;5067871;28;20028;-65
2023/12/28 06:48:41;;;;;;;0.50;0.50;;;;;;;4.65;100.00;98556.81;5067917;28;20021;-65
2023/12/28 06:51:06;;;;;;;0.40;0.40;;;;;;;4.62;100.00;98547.41;5067701;28;20021;-66
2023/12/28 06:53:32;;;;;;;0.50;0.50;;;;;;;4.63;100.00;98546.53;5067913;28;20025;-65
2023/12/28 06:55:57;;;;;;;0.40;0.40;;;;;;;4.64;100.00;98532.81;5067460;28;20021;-66
2023/12/28 06:58:23;;;;;;;0.40;0.40;;;;;;;4.62;100.00;98529.41;5067699;28;20025;-66
2023/12/28 07:00:49;;;;;;;0.40;0.40;;;;;;;4.66;100.00;98525.94;5067616;28;20093;-66
2023/12/28 07:03:14;;;;;;;0.40;0.40;;;;;;;4.74;100.00;98535.25;5067645;28;20052;-66
2023/12/28 07:05:40;;;;;;;1.30;1.30;;;;;;;4.73;100.00;98528.41;5067357;28;20032;-65
2023/12/28 07:08:05;;;;;;;0.40;0.40;;;;;;;4.76;100.00;98524.06;5067537;28;20025;-65
2023/12/28 07:10:31;;;;;;;0.40;0.40;;;;;;;4.73;100.00;98516.38;5049455;28;20028;-65
2023/12/28 07:12:56;;;;;;;0.40;0.40;;;;;;;4.75;100.00;98511.22;5067491;28;20469;-65
2023/12/28 07:15:21;;;;;;;0.50;0.50;;;;;;;4.77;100.00;98512.06;5067334;28;20017;-65
2023/12/28 07:17:47;;;;;;;0.40;0.40;;;;;;;4.78;100.00;98513.75;5067430;28;20021;-65
2023/12/28 07:20:12;;;;;;;0.40;0.40;;;;;;;4.80;100.00;98512.00;5066930;28;20512;-65
2023/12/28 07:22:38;;;;;;;0.40;0.40;;;;;;;4.85;100.00;98505.09;5067224;28;20032;-65
2023/12/28 07:25:06;;;;;;;0.40;0.40;;;;;;;4.78;100.00;98499.19;5067039;28;20024;-65
2023/12/28 07:27:33;;;;;;;0.40;0.40;;;;;;;4.82;100.00;98515.41;5067178;28;20112;-65
2023/12/28 07:29:58;;;;;;;0.40;0.40;;;;;;;4.89;100.00;98500.75;5066890;28;20421;-66
2023/12/28 07:32:25;;;;;;;2.38;2.25;;;;;;;4.86;100.00;98516.22;5066999;28;20088;-64
2023/12/28 07:34:54;;;;;;;0.40;0.40;;;;;;;4.87;100.00;98500.78;5065493;28;20481;-64
2023/12/28 07:37:20;;;;;;;0.47;0.47;;;;;;;4.90;100.00;98487.88;5066825;28;20374;-64
2023/12/28 07:39:45;;;;;;;0.40;0.40;;;;;;;4.93;100.00;98481.81;5048783;28;20536;-65
2023/12/28 07:42:10;;;;;;;0.40;0.40;;;;;;;4.95;100.00;98468.03;5066898;28;20489;-65
2023/12/28 07:44:36;;;;;;;0.40;0.40;;;;;;;4.93;100.00;98446.66;5066600;28;20044;-64
2023/12/28 07:47:01;;;;;;;0.40;0.40;;;;;;;4.96;100.00;98467.19;5066870;28;20024;-64
2023/12/28 07:49:27;;;;;;;1.27;1.27;;;;;;;5.01;100.00;98477.41;5066785;28;20017;-64
2023/12/28 07:51:52;;;;;;;0.40;0.40;;;;;;;5.02;100.00;98455.06;5066577;28;20024;-65
2023/12/28 07:54:17;;;;;;;0.40;0.40;;;;;;;5.01;100.00;98469.69;5066657;28;20056;-65
2023/12/28 07:56:43;;;;;;;0.40;0.40;;;;;;;5.04;100.00;98474.78;5066554;28;20112;-65
2023/12/28 07:59:09;;;;;;;0.40;0.40;;;;;;;4.94;100.00;98462.94;5066780;28;20044;-65
2023/12/28 08:01:35;;;;;;;0.40;0.40;;;;;;;4.92;100.00;98457.81;5066520;28;20059;-64
2023/12/28 08:04:01;;;;;;;0.40;0.40;;;;;;;4.92;100.00;98480.13;5066264;28;20029;-64
2023/12/28 08:06:27;;;;;;;1.98;1.95;;;;;;;4.93;100.00;98467.25;5066294;28;20028;-64
2023/12/28 08:08:53;;;;;;;0.40;0.40;;;;;;;4.94;100.00;98458.66;5066418;28;20021;-64
2023/12/28 08:11:19;;;;;;;0.40;0.40;;;;;;;4.95;100.00;98460.31;5048331;28;20052;-64
2023/12/28 08:13:44;;;;;;;0.40;0.40;;;;;;;5.00;100.00;98449.97;5066288;28;20495;-64
2023/12/28 08:16:10;;;;;;;0.40;0.40;;;;;;;5.03;100.00;98443.94;5066216;28;20021;-66
2023/12/28 08:18:35;;;;;;;0.40;0.40;;;;;;;5.02;100.00;98444.78;5066323;28;20028;-64
2023/12/28 08:21:00;;;;;;;0.40;0.40;;;;;;;5.00;100.00;98429.38;5047900;28;20021;-65
2023/12/28 08:23:26;;;;;;;0.40;0.40;;;;;;;4.98;100.00;98422.59;5065916;28;20021;-65
2023/12/28 08:25:51;;;;;;;0.40;0.40;;;;;;;4.94;100.00;98430.34;5065694;28;20028;-64
2023/12/28 08:28:17;;;;;;;0.40;0.40;;;;;;;4.92;100.00;98431.28;5065920;28;20036;-65
2023/12/28 08:30:42;;;;;;;0.40;0.40;;;;;;;4.91;100.00;98425.28;5065732;28;20045;-65
2023/12/28 08:33:08;;;;;;;0.40;0.40;;;;;;;4.90;100.00;98415.00;5065867;28;20021;-65
2023/12/28 08:35:33;;;;;;;1.42;1.40;;;;;;;4.91;100.00;98406.41;5065575;28;20084;-64
2023/12/28 08:37:59;;;;;;;0.40;0.40;;;;;;;4.90;100.00;98418.44;5065874;28;20021;-65
2023/12/28 08:40:25;;;;;;;1.15;1.15;;;;;;;4.86;100.00;98403.09;5065625;28;20376;-65
2023/12/28 08:42:50;;;;;;;0.40;0.40;;;;;;;4.84;100.00;98410.81;5047782;28;20024;-65
2023/12/28 08:45:16;;;;;;;0.73;0.73;;;;;;;4.78;100.00;98398.06;5065288;28;20031;-64
2023/12/28 08:47:41;;;;;;;0.40;0.40;;;;;;;4.81;100.00;98393.72;5065220;28;20032;-64
2023/12/28 08:50:07;;;;;;;0.40;0.40;;;;;;;4.77;100.00;98383.50;5065234;28;20083;-64
2023/12/28 08:52:32;;;;;;;0.40;0.40;;;;;;;4.75;100.00;98374.97;5065705;28;20373;-64
2023/12/28 08:54:58;;;;;;;0.40;0.40;;;;;;;4.80;100.00;98362.88;5065476;28;20017;-64
2023/12/28 08:57:23;;;;;;;0.40;0.40;;;;;;;4.75;100.00;98360.41;5065276;28;20029;-64
2023/12/28 08:59:49;;;;;;;0.40;0.40;;;;;;;4.68;100.00;98359.66;5065498;28;20093;-64
2023/12/28 09:02:14;;;;;;;0.40;0.40;;;;;;;4.65;100.00;98362.28;5064814;28;20075;-64
2023/12/28 09:04:39;;;;;;;0.40;0.40;;;;;;;4.77;100.00;98362.94;5064756;28;20131;-63
2023/12/28 09:07:05;;;;;;;1.60;1.50;;;;;;;4.75;100.00;98356.97;5065467;28;20085;-65
2023/12/28 09:09:30;;;;;;;0.40;0.40;;;;;;;4.77;100.00;98358.66;5065031;28;20032;-66
2023/12/28 09:11:56;;;;;;;0.95;0.95;;;;;;;4.77;100.00;98358.66;5047397;28;20055;-64
2023/12/28 09:14:21;;;;;;;0.40;0.40;;;;;;;4.77;100.00;98357.81;5065234;28;20017;-65
2023/12/28 09:16:47;;;;;;;0.40;0.40;;;;;;;4.77;100.00;98329.53;5065346;28;20033;-65
2023/12/28 09:19:13;;;;;;;0.40;0.40;;;;;;;4.92;100.00;98347.25;5065345;28;20025;-64
2023/12/28 09:21:38;;;;;;;0.40;0.40;;;;;;;4.93;100.00;98340.38;5064329;28;20021;-65
2023/12/28 09:24:03;;;;;;;0.40;0.40;;;;;;;5.02;100.00;98339.34;5063851;28;20067;-64
2023/12/28 09:26:29;;;;;;;0.50;0.50;;;;;;;4.98;100.00;98330.88;5064156;28;20025;-65
2023/12/28 09:28:55;;;;;;;0.40;0.40;;;;;;;5.03;100.00;98338.50;5046998;28;20049;-65
2023/12/28 09:31:20;;;;;;;0.40;0.40;;;;;;;5.07;100.00;98324.69;5065440;28;20025;-65
2023/12/28 09:33:45;;;;;;;0.40;0.40;;;;;;;5.08;100.00;98332.38;5065186;28;20157;-65
2023/12/28 09:36:12;;;;;;;1.52;1.52;;;;;;;5.12;100.00;98343.44;5064617;28;20102;-64
2023/12/28 09:38:38;;;;;;;0.40;0.40;;;;;;;5.13;100.00;98334.84;5064960;28;20052;-65
2023/12/28 09:41:15;;;;;;;0.90;0.90;;;;;;;5.12;100.00;98333.16;5064929;28;20488;-65
2023/12/28 09:43:54;;;;;;;0.40;0.40;;;;;;;5.18;100.00;98327.91;5065129;28;20073;-65
2023/12/28 09:46:19;;;;;;;0.40;0.40;;;;;;;5.16;100.00;98319.34;5065035;28;20050;-64
2023/12/28 09:48:45;;;;;;;0.82;0.82;;;;;;;5.12;100.00;98322.88;5065123;28;20025;-65
2023/12/28 09:51:10;;;;;;;0.40;0.40;;;;;;;5.13;100.00;98319.41;5064653;28;20025;-66
2023/12/28 09:53:36;;;;;;;0.40;0.40;;;;;;;5.16;100.00;98324.50;5065010;28;20056;-66
2023/12/28 09:56:05;;;;;;;0.40;0.40;;;;;;;5.16;100.00;98329.63;5064895;28;20076;-66
2023/12/28 09:58:33;;;;;;;0.63;0.63;;;;;;;5.14;100.00;98321.13;5066265;28;20461;-66
2023/12/28 10:01:00;;;;;;;0.40;0.40;;;;;;;5.25;100.00;98312.34;5067981;28;20025;-65
2023/12/28 10:03:25;;;;;;;0.40;0.40;;;;;;;5.37;100.00;98317.22;5049672;28;20017;-65
2023/12/28 10:05:51;;;;;;;0.40;0.40;;;;;;;5.40;100.00;98311.19;5067892;28;20031;-65
2023/12/28 10:08:16;;;;;;;0.47;0.47;;;;;;;5.33;100.00;98300.16;5068721;28;20047;-67
2023/12/28 10:10:43;;;;;;;0.50;0.50;;;;;;;5.30;100.00;98297.66;5068573;28;20037;-65
2023/12/28 10:13:10;;;;;;;0.50;0.50;;;;;;;5.31;100.00;98292.47;5068701;28;20024;-66
2023/12/28 10:15:37;;;;;;;0.40;0.40;;;;;;;5.26;100.00;98296.88;5068554;28;20116;-66
2023/12/28 10:18:03;;;;;;;0.40;0.40;;;;;;;5.25;100.00;98287.47;5068516;28;20045;-64
2023/12/28 10:20:29;;;;;;;0.40;0.40;;;;;;;5.28;100.00;98302.84;5068224;28;20032;-66
2023/12/28 10:22:54;;;;;;;0.93;0.93;;;;;;;5.32;100.00;98285.59;5068317;28;20025;-66
2023/12/28 10:25:20;;;;;;;0.40;0.40;;;;;;;5.26;100.00;98276.28;5050129;28;20040;-65
2023/12/28 10:27:45;;;;;;;2.83;2.67;;;;;;;5.30;100.00;98259.88;5068346;28;20052;-66
2023/12/28 10:30:11;;;;;;;0.40;0.40;;;;;;;5.31;100.00;98255.59;5068229;28;20037;-66
2023/12/28 10:32:39;;;;;;;0.40;0.40;;;;;;;5.29;100.00;98262.50;5068524;28;20071;-65
2023/12/28 10:35:05;;;;;;;0.40;0.40;;;;;;;5.36;100.00;98256.34;5067811;28;20458;-66
2023/12/28 10:37:32;;;;;;;0.45;0.45;;;;;;;5.41;100.00;98249.38;5068214;28;20083;-65
2023/12/28 10:40:00;;;;;;;0.60;0.60;;;;;;;5.43;100.00;98251.91;5068178;28;20017;-65
2023/12/28 10:42:30;;;;;;;1.85;1.75;;;;;;;5.41;100.00;98244.25;5067919;28;20021;-66
2023/12/28 10:45:04;;;;;;;0.60;0.60;;;;;;;5.43;100.00;98239.88;5067699;28;20033;-65
2023/12/28 10:47:34;;;;;;;22.23;3.50;;;;;;;5.39;100.00;98240.84;5068167;28;20097;-67
2023/12/28 10:50:04;;;;;;;0.50;0.50;;;;;;;5.52;100.00;98244.00;5067749;28;20020;-64
2023/12/28 10:52:31;;;;;;;0.40;0.40;;;;;;;5.45;100.00;98226.97;5068033;28;20074;-65
2023/12/28 10:55:19;;;;;;;2.65;2.42;;;;;;;5.51;100.00;98251.75;5067740;28;20500;-66
2023/12/28 10:58:15;;;;;;;0.40;0.40;;;;;;;5.42;100.00;98243.34;5067701;28;20021;-66
2023/12/28 11:00:49;;;;;;;0.40;0.40;;;;;;;5.44;100.00;98248.47;5053441;28;20552;-66
2023/12/28 11:03:22;;;;;;;0.40;0.40;;;;;;;5.44;100.00;98246.75;5067773;28;20032;-66
2023/12/28 11:05:47;;;;;;;0.40;0.40;;;;;;;5.39;100.00;98261.44;5067182;28;20035;-67
2023/12/28 11:08:14;;;;;;;0.40;0.40;;;;;;;5.37;100.00;98264.94;5067684;28;20399;-67
2023/12/28 11:10:41;;;;;;;0.40;0.40;;;;;;;5.36;100.00;98269.22;5067156;28;20051;-66
2023/12/28 11:13:09;;;;;;;0.45;0.45;;;;;;;5.34;100.00;98283.84;5067964;28;20045;-67
2023/12/28 11:15:36;;;;;;;0.40;0.40;;;;;;;5.28;100.00;98279.69;5067329;28;20044;-65
2023/12/28 11:18:01;;;;;;;0.40;0.40;;;;;;;5.35;100.00;98285.53;5067471;28;20032;-66
2023/12/28 11:20:28;;;;;;;35.63;2.83;;;;;;;5.36;100.00;98283.78;5067122;28;20025;-67
2023/12/28 11:22:55;;;;;;;0.40;0.40;;;;;;;5.36;100.00;98288.94;5067407;28;20021;-67
2023/12/28 11:25:20;;;;;;;0.40;0.40;;;;;;;5.35;100.00;98289.84;5067179;28;20043;-67
2023/12/28 11:27:46;;;;;;;0.40;0.40;;;;;;;5.23;100.00;98286.63;5067371;28;20099;-66
2023/12/28 11:30:13;;;;;;;0.40;0.40;;;;;;;5.35;100.00;98300.97;5066889;28;20049;-67